createdAt,value
2022-11-05T00:00:17.877Z,1.83
2022-11-05T00:03:02.656Z,0.93
2022-11-05T00:05:47.491Z,2.05
2022-11-05T00:08:32.313Z,1.38
2022-11-05T00:10:58.895Z,1.15
2022-11-05T00:13:44.058Z,1.30
2022-11-05T00:16:28.916Z,1.38
2022-11-05T00:19:07.056Z,1.08
2022-11-05T00:21:53.695Z,1.42
2022-11-05T00:24:39.337Z,1.35
2022-11-05T00:27:06.268Z,1.38
2022-11-05T00:29:32.816Z,1.30
2022-11-05T00:31:59.387Z,1.23
2022-11-05T00:34:25.993Z,1.00
2022-11-05T00:36:52.617Z,1.70
2022-11-05T00:39:19.150Z,1.40
2022-11-05T00:42:05.627Z,1.73
2022-11-05T00:44:51.077Z,1.25
2022-11-05T00:47:36.257Z,1.30
2022-11-05T00:50:03.086Z,1.33
2022-11-05T00:52:48.081Z,1.00
2022-11-05T00:55:14.686Z,1.23
2022-11-05T00:57:41.166Z,1.58
2022-11-05T01:00:08.352Z,2.08
2022-11-05T01:02:35.008Z,1.42
2022-11-05T01:05:01.556Z,1.55
2022-11-05T01:07:28.069Z,1.58
2022-11-05T01:09:54.639Z,1.42
2022-11-05T01:12:21.222Z,1.15
2022-11-05T01:14:47.745Z,1.35
2022-11-05T01:17:14.272Z,1.23
2022-11-05T01:19:40.887Z,1.50
2022-11-05T01:22:07.401Z,1.63
2022-11-05T01:24:33.902Z,1.23
2022-11-05T01:27:00.442Z,1.90
2022-11-05T01:29:26.963Z,1.20
2022-11-05T01:31:53.496Z,1.35
2022-11-05T01:34:20.022Z,1.08
2022-11-05T01:36:46.533Z,1.20
2022-11-05T01:39:13.320Z,1.52
2022-11-05T01:41:39.800Z,1.30
2022-11-05T01:44:06.322Z,1.35
2022-11-05T01:46:42.039Z,1.27
2022-11-05T01:49:14.546Z,1.10
2022-11-05T01:51:42.020Z,0.65
2022-11-05T01:54:10.599Z,1.08
2022-11-05T01:56:47.491Z,0.90
2022-11-05T01:59:23.453Z,0.90
2022-11-05T02:01:50.591Z,0.88
2022-11-05T02:04:26.945Z,1.42
2022-11-05T02:06:53.502Z,2.45
2022-11-05T02:09:30.230Z,0.65
2022-11-05T02:11:57.287Z,0.73
2022-11-05T02:14:23.808Z,1.30
2022-11-05T02:16:53.321Z,0.57
2022-11-05T02:19:25.772Z,0.43
2022-11-05T02:22:29.345Z,0.47
2022-11-05T02:25:14.627Z,0.90
2022-11-05T02:27:44.069Z,0.40
2022-11-05T02:30:25.725Z,0.90
2022-11-05T02:33:33.762Z,0.70
2022-11-05T02:36:17.784Z,0.52
2022-11-05T02:39:02.207Z,0.77
2022-11-05T02:41:53.667Z,0.40
2022-11-05T02:44:41.713Z,0.60
2022-11-05T02:50:00.305Z,1.00
2022-11-05T02:52:50.064Z,0.68
2022-11-05T02:55:23.917Z,0.93
2022-11-05T02:57:50.497Z,1.05
2022-11-05T03:00:45.239Z,0.80
2022-11-05T03:03:16.723Z,1.23
2022-11-05T03:06:20.316Z,0.90
2022-11-05T03:09:20.402Z,0.57
2022-11-05T03:12:06.032Z,0.65
2022-11-05T03:14:39.568Z,1.10
2022-11-05T03:17:14.553Z,0.50
2022-11-05T03:19:54.288Z,0.98
2022-11-05T03:22:35.484Z,1.20
2022-11-05T03:25:05.700Z,1.33
2022-11-05T03:27:35.228Z,1.20
2022-11-05T03:30:09.574Z,1.35
2022-11-05T03:32:39.236Z,0.70
2022-11-05T03:35:13.233Z,0.63
2022-11-05T03:37:41.644Z,0.52
2022-11-05T03:40:09.703Z,0.50
2022-11-05T03:42:39.014Z,0.80
2022-11-05T03:45:10.022Z,0.90
2022-11-05T03:47:39.701Z,0.57
2022-11-05T03:50:23.123Z,0.43
2022-11-05T03:52:54.477Z,1.20
2022-11-05T03:55:25.096Z,1.10
2022-11-05T03:57:54.084Z,0.75
2022-11-05T04:00:21.749Z,0.52
2022-11-05T04:02:48.350Z,0.60
2022-11-05T04:05:15.015Z,0.90
2022-11-05T04:08:01.024Z,0.70
2022-11-05T04:10:45.864Z,1.33
2022-11-05T04:13:24.161Z,0.85
2022-11-05T04:16:13.007Z,0.60
2022-11-05T04:18:39.948Z,0.55
2022-11-05T04:21:25.714Z,1.00
2022-11-05T04:24:10.126Z,0.95
2022-11-05T04:26:42.018Z,1.10
2022-11-05T04:29:28.799Z,1.13
2022-11-05T04:31:55.323Z,0.90
2022-11-05T04:34:24.766Z,0.80
2022-11-05T04:36:52.382Z,0.38
2022-11-05T04:39:19.974Z,1.40
2022-11-05T04:41:49.860Z,0.75
2022-11-05T04:44:16.819Z,0.50
2022-11-05T04:46:43.496Z,1.20
2022-11-05T04:49:09.984Z,0.55
2022-11-05T04:51:36.462Z,0.95
2022-11-05T04:54:03.454Z,1.00
2022-11-05T04:56:29.968Z,0.68
2022-11-05T04:58:56.465Z,0.75
2022-11-05T05:01:23.670Z,0.80
2022-11-05T05:03:51.288Z,0.88
2022-11-05T05:06:18.564Z,0.68
2022-11-05T05:08:46.817Z,0.95
2022-11-05T05:11:14.407Z,1.02
2022-11-05T05:13:40.915Z,0.70
2022-11-05T05:16:09.363Z,0.63
2022-11-05T05:18:35.975Z,1.17
2022-11-05T05:21:21.255Z,0.63
2022-11-05T05:23:48.353Z,0.60
2022-11-05T05:26:16.051Z,0.85
2022-11-05T05:28:42.588Z,1.35
2022-11-05T05:31:09.219Z,0.50
2022-11-05T05:33:35.973Z,0.50
2022-11-05T05:36:07.031Z,0.95
2022-11-05T05:38:36.569Z,0.52
2022-11-05T05:41:03.155Z,0.82
2022-11-05T05:43:33.646Z,1.00
2022-11-05T05:46:08.067Z,0.88
2022-11-05T05:48:34.885Z,0.77
2022-11-05T05:51:02.764Z,0.98
2022-11-05T05:53:29.616Z,0.80
2022-11-05T05:55:56.898Z,1.00
2022-11-05T05:58:24.188Z,0.82
2022-11-05T06:00:50.647Z,1.33
2022-11-05T06:03:17.229Z,1.38
2022-11-05T06:05:43.723Z,0.68
2022-11-05T06:08:10.229Z,0.40
2022-11-05T06:10:36.818Z,0.88
2022-11-05T06:13:03.356Z,1.05
2022-11-05T06:15:35.521Z,0.75
2022-11-05T06:18:02.433Z,1.13
2022-11-05T06:20:28.910Z,1.00
2022-11-05T06:22:56.508Z,0.80
2022-11-05T06:25:23.787Z,1.35
2022-11-05T06:27:50.339Z,1.10
2022-11-05T06:30:17.696Z,0.70
2022-11-05T06:32:44.691Z,0.82
2022-11-05T06:35:11.236Z,0.90
2022-11-05T06:37:37.716Z,0.70
2022-11-05T06:40:04.593Z,1.15
2022-11-05T06:42:31.084Z,1.15
2022-11-05T06:44:57.707Z,0.60
2022-11-05T06:47:24.238Z,1.17
2022-11-05T06:49:50.715Z,0.70
2022-11-05T06:52:17.230Z,1.98
2022-11-05T06:54:44.032Z,0.88
2022-11-05T06:57:11.872Z,0.68
2022-11-05T06:59:39.296Z,0.40
2022-11-05T07:02:06.643Z,1.35
2022-11-05T07:04:33.285Z,1.38
2022-11-05T07:07:00.880Z,1.02
2022-11-05T07:09:28.791Z,1.10
2022-11-05T07:11:55.709Z,0.70
2022-11-05T07:14:22.243Z,0.60
2022-11-05T07:16:48.784Z,0.75
2022-11-05T07:19:15.315Z,0.75
2022-11-05T07:21:41.808Z,0.93
2022-11-05T07:24:08.485Z,0.75
2022-11-05T07:26:34.991Z,0.70
2022-11-05T07:29:01.553Z,0.80
2022-11-05T07:31:28.144Z,0.30
2022-11-05T07:33:54.712Z,0.43
2022-11-05T07:36:21.175Z,0.55
2022-11-05T07:38:47.660Z,0.32
2022-11-05T07:41:14.152Z,0.80
2022-11-05T07:43:40.628Z,0.85
2022-11-05T07:46:12.660Z,0.68
2022-11-05T07:48:40.322Z,0.80
2022-11-05T07:51:06.841Z,0.68
2022-11-05T07:53:33.383Z,0.90
2022-11-05T07:55:59.999Z,0.70
2022-11-05T07:58:26.643Z,0.55
2022-11-05T08:00:53.291Z,0.70
2022-11-05T08:03:20.551Z,0.98
2022-11-05T08:05:47.914Z,0.50
2022-11-05T08:08:16.587Z,0.98
2022-11-05T08:10:43.264Z,0.90
2022-11-05T08:13:10.755Z,0.63
2022-11-05T08:15:37.743Z,0.88
2022-11-05T08:18:12.654Z,1.50
2022-11-05T08:20:40.571Z,1.10
2022-11-05T08:23:07.652Z,0.70
2022-11-05T08:25:34.603Z,0.70
2022-11-05T08:28:06.688Z,0.95
2022-11-05T08:30:34.073Z,0.80
2022-11-05T08:33:03.896Z,0.85
2022-11-05T08:35:30.811Z,0.98
2022-11-05T08:37:59.067Z,1.30
2022-11-05T08:40:26.429Z,0.93
2022-11-05T08:42:53.417Z,0.70
2022-11-05T08:45:19.993Z,1.52
2022-11-05T08:47:46.628Z,1.25
2022-11-05T08:50:13.263Z,0.70
2022-11-05T08:52:40.697Z,0.98
2022-11-05T08:55:07.851Z,0.47
2022-11-05T08:57:34.391Z,1.02
2022-11-05T09:00:01.056Z,1.02
2022-11-05T09:02:27.843Z,0.68
2022-11-05T09:04:54.434Z,0.70
2022-11-05T09:07:22.852Z,0.90
2022-11-05T09:09:49.460Z,1.15
2022-11-05T09:12:16.078Z,1.92
2022-11-05T09:14:42.669Z,1.13
2022-11-05T09:17:15.965Z,0.80
2022-11-05T09:19:42.598Z,1.10
2022-11-05T09:22:12.567Z,1.08
2022-11-05T09:24:39.974Z,1.00
2022-11-05T09:27:10.195Z,1.15
2022-11-05T09:29:36.915Z,1.20
2022-11-05T09:32:03.633Z,1.45
2022-11-05T09:34:30.188Z,1.15
2022-11-05T09:36:57.229Z,1.52
2022-11-05T09:39:24.429Z,1.33
2022-11-05T09:41:53.198Z,1.02
2022-11-05T09:44:28.245Z,1.17
2022-11-05T09:49:39.743Z,0.90
2022-11-05T09:52:12.498Z,1.25
2022-11-05T09:54:40.093Z,0.70
2022-11-05T09:57:08.525Z,0.70
2022-11-05T09:59:42.003Z,1.00
2022-11-05T10:02:16.298Z,0.60
2022-11-05T10:04:43.768Z,0.55
2022-11-05T10:07:15.901Z,0.60
2022-11-05T10:09:47.648Z,0.98
2022-11-05T10:12:24.491Z,0.60
2022-11-05T10:15:03.583Z,0.40
2022-11-05T10:17:33.739Z,0.60
2022-11-05T10:20:10.633Z,0.55
2022-11-05T10:22:37.249Z,0.30
2022-11-05T10:25:16.563Z,0.70
2022-11-05T10:27:48.080Z,0.43
2022-11-05T10:30:15.116Z,0.50
2022-11-05T10:32:42.888Z,0.20
2022-11-05T10:35:16.640Z,0.55
2022-11-05T10:37:43.129Z,0.35
2022-11-05T10:40:33.619Z,0.38
2022-11-05T10:43:08.126Z,0.75
2022-11-05T10:45:47.170Z,0.60
2022-11-05T10:48:43.464Z,0.63
2022-11-05T10:51:10.577Z,0.80
2022-11-05T10:53:39.075Z,0.50
2022-11-05T10:56:43.204Z,1.58
2022-11-05T10:59:25.045Z,0.95
2022-11-05T11:02:08.552Z,1.00
2022-11-05T11:04:38.062Z,0.63
2022-11-05T11:07:06.304Z,0.75
2022-11-05T11:09:35.988Z,0.82
2022-11-05T11:12:06.332Z,0.65
2022-11-05T11:14:34.980Z,0.98
2022-11-05T11:22:15.675Z,0.43
2022-11-05T11:24:48.314Z,0.70
2022-11-05T11:27:17.857Z,0.88
2022-11-05T11:29:49.802Z,0.65
2022-11-05T11:32:19.489Z,1.13
2022-11-05T11:34:50.228Z,0.82
2022-11-05T11:37:23.605Z,0.68
2022-11-05T11:40:05.995Z,0.90
2022-11-05T11:42:37.696Z,0.82
2022-11-05T11:45:07.748Z,0.60
2022-11-05T11:47:34.426Z,1.00
2022-11-05T11:50:02.180Z,0.60
2022-11-05T11:52:30.711Z,0.60
2022-11-05T11:57:43.881Z,0.73
2022-11-05T12:00:10.962Z,0.60
2022-11-05T12:03:18.291Z,0.60
2022-11-05T12:05:48.236Z,0.70
2022-11-05T12:08:44.355Z,0.30
2022-11-05T12:11:21.476Z,0.40
2022-11-05T12:13:55.837Z,0.43
2022-11-05T12:16:25.953Z,0.43
2022-11-05T12:19:00.375Z,0.22
2022-11-05T12:21:52.506Z,0.30
2022-11-05T12:24:36.018Z,0.30
2022-11-05T12:27:33.820Z,0.57
2022-11-05T12:30:20.517Z,0.40
2022-11-05T12:33:05.320Z,0.30
2022-11-05T12:35:56.496Z,0.40
2022-11-05T12:38:54.428Z,0.40
2022-11-05T12:41:41.209Z,0.70
2022-11-05T12:44:13.476Z,0.30
2022-11-05T12:46:58.463Z,0.40
2022-11-05T12:49:43.704Z,0.60
2022-11-05T12:52:47.992Z,0.20
2022-11-05T12:55:18.632Z,0.40
2022-11-05T12:57:48.284Z,0.38
2022-11-05T13:00:23.442Z,0.40
2022-11-05T13:03:08.163Z,0.25
2022-11-05T13:05:37.807Z,0.22
2022-11-05T13:08:14.614Z,0.25
2022-11-05T13:10:44.836Z,0.20
2022-11-05T13:13:29.232Z,0.38
2022-11-05T13:16:11.798Z,0.15
2022-11-05T13:18:48.755Z,0.30
2022-11-05T13:21:16.169Z,0.50
2022-11-05T13:23:49.064Z,0.50
2022-11-05T13:26:24.849Z,0.50
2022-11-05T13:28:57.466Z,0.82
2022-11-05T13:31:31.031Z,0.50
2022-11-05T13:33:57.654Z,0.52
2022-11-05T13:36:46.965Z,0.60
2022-11-05T13:39:28.300Z,0.70
2022-11-05T13:42:06.592Z,0.57
2022-11-05T13:44:46.579Z,0.50
2022-11-05T13:47:20.428Z,0.50
2022-11-05T13:50:01.331Z,0.30
2022-11-05T13:52:51.345Z,0.47
2022-11-05T13:55:36.533Z,0.20
2022-11-05T13:58:15.347Z,0.85
2022-11-05T14:00:57.095Z,0.43
2022-11-05T14:03:23.778Z,0.45
2022-11-05T14:06:04.803Z,0.30
2022-11-05T14:11:02.192Z,0.60
2022-11-05T14:13:38.005Z,0.40
2022-11-05T14:16:06.861Z,0.40
2022-11-05T14:18:45.966Z,0.57
2022-11-05T14:21:27.867Z,0.30
2022-11-05T14:23:59.521Z,0.85
2022-11-05T14:26:32.083Z,0.20
2022-11-05T14:28:58.609Z,0.40
2022-11-05T14:31:54.350Z,0.35
2022-11-05T14:34:23.801Z,0.60
2022-11-05T14:37:17.926Z,0.40
2022-11-05T14:39:45.577Z,0.38
2022-11-05T14:42:15.195Z,0.20
2022-11-05T14:44:57.038Z,0.30
2022-11-05T14:47:26.580Z,0.30
2022-11-05T14:49:58.543Z,0.85
2022-11-05T14:52:25.178Z,0.50
2022-11-05T14:54:54.249Z,0.45
2022-11-05T14:57:42.590Z,0.90
2022-11-05T15:00:40.716Z,0.88
2022-11-05T15:03:30.850Z,0.70
2022-11-05T15:06:05.665Z,0.60
2022-11-05T15:08:35.367Z,0.93
2022-11-05T15:11:21.946Z,1.08
2022-11-05T15:13:54.579Z,0.60
2022-11-05T15:16:26.168Z,0.60
2022-11-05T15:18:54.058Z,1.00
2022-11-05T15:21:21.122Z,0.43
2022-11-05T15:23:50.058Z,0.52
2022-11-05T15:26:41.500Z,0.73
2022-11-05T15:29:19.816Z,0.68
2022-11-05T15:31:46.728Z,0.60
2022-11-05T15:34:16.487Z,0.82
2022-11-05T15:37:13.502Z,0.70
2022-11-05T15:39:42.343Z,0.52
2022-11-05T15:42:18.953Z,0.47
2022-11-05T15:44:50.525Z,0.55
2022-11-05T15:47:25.559Z,0.40
2022-11-05T15:49:58.280Z,0.45
2022-11-05T15:52:33.662Z,0.40
2022-11-05T15:55:12.469Z,0.45
2022-11-05T15:57:50.281Z,0.60
2022-11-05T16:00:20.675Z,0.60
2022-11-05T16:03:13.964Z,0.57
2022-11-05T16:05:45.537Z,0.52
2022-11-05T16:08:17.080Z,0.65
2022-11-05T16:10:48.003Z,0.70
2022-11-05T16:13:37.042Z,0.50
2022-11-05T16:16:14.240Z,0.52
2022-11-05T16:18:41.866Z,0.40
2022-11-05T16:21:14.083Z,0.50
2022-11-05T16:23:44.741Z,0.57
2022-11-05T16:27:01.083Z,0.45
2022-11-05T16:29:29.236Z,0.70
2022-11-05T16:31:57.178Z,0.43
2022-11-05T16:34:27.338Z,0.40
2022-11-05T16:36:56.070Z,0.32
2022-11-05T16:39:22.684Z,0.35
2022-11-05T16:41:49.579Z,0.60
2022-11-05T16:44:16.182Z,0.50
2022-11-05T16:46:46.694Z,0.85
2022-11-05T16:49:13.617Z,0.45
2022-11-05T16:51:40.644Z,0.60
2022-11-05T16:54:07.417Z,0.82
2022-11-05T16:56:34.161Z,0.80
2022-11-05T16:59:01.019Z,0.98
2022-11-05T17:01:28.004Z,0.90
2022-11-05T17:03:54.895Z,0.80
2022-11-05T17:06:21.889Z,1.33
2022-11-05T17:08:48.668Z,1.13
2022-11-05T17:11:17.451Z,1.27
2022-11-05T17:13:44.464Z,1.30
2022-11-05T17:16:13.047Z,1.30
2022-11-05T17:18:40.554Z,0.90
2022-11-05T17:21:08.314Z,1.40
2022-11-05T17:23:35.459Z,1.38
2022-11-05T17:26:04.643Z,1.25
2022-11-05T17:28:31.345Z,1.67
2022-11-05T17:31:02.088Z,1.40
2022-11-05T17:33:28.931Z,1.25
2022-11-05T17:35:56.150Z,1.25
2022-11-05T17:38:23.724Z,2.03
2022-11-05T17:40:50.621Z,1.55
2022-11-05T17:43:17.709Z,2.08
2022-11-05T17:45:47.153Z,1.88
2022-11-05T17:48:14.679Z,1.77
2022-11-05T17:50:46.196Z,2.03
2022-11-05T17:53:14.219Z,1.15
2022-11-05T17:55:42.190Z,1.15
2022-11-05T17:58:08.840Z,1.52
2022-11-05T18:00:35.860Z,1.48
2022-11-05T18:03:02.538Z,1.13
2022-11-05T18:05:30.880Z,1.42
2022-11-05T18:07:58.021Z,1.77
2022-11-05T18:10:24.882Z,1.40
2022-11-05T18:12:51.527Z,1.48
2022-11-05T18:15:18.353Z,1.25
2022-11-05T18:17:46.179Z,1.88
2022-11-05T18:20:18.856Z,1.58
2022-11-05T18:22:48.438Z,1.52
2022-11-05T18:25:14.998Z,1.63
2022-11-05T18:27:41.605Z,1.42
2022-11-05T18:30:09.879Z,1.38
2022-11-05T18:32:36.795Z,1.50
2022-11-05T18:35:03.613Z,1.88
2022-11-05T18:37:30.217Z,2.05
2022-11-05T18:39:56.852Z,1.38
2022-11-05T18:42:23.497Z,1.02
2022-11-05T18:44:50.041Z,1.35
2022-11-05T18:47:16.748Z,1.33
2022-11-05T18:49:43.333Z,1.40
2022-11-05T18:52:09.879Z,1.30
2022-11-05T18:54:36.397Z,1.17
2022-11-05T18:57:03.120Z,1.63
2022-11-05T18:59:37.639Z,2.28
2022-11-05T19:02:06.091Z,1.63
2022-11-05T19:04:32.869Z,2.42
2022-11-05T19:07:04.388Z,1.90
2022-11-05T19:09:32.328Z,1.85
2022-11-05T19:11:58.889Z,1.65
2022-11-05T19:14:25.515Z,2.33
2022-11-05T19:16:52.057Z,1.58
2022-11-05T19:19:18.781Z,2.00
2022-11-05T19:21:45.545Z,2.55
2022-11-05T19:24:16.638Z,1.67
2022-11-05T19:26:43.646Z,2.45
2022-11-05T19:29:10.287Z,2.95
2022-11-05T19:31:36.996Z,2.22
2022-11-05T19:34:05.357Z,2.05
2022-11-05T19:36:32.861Z,2.20
2022-11-05T19:39:01.940Z,3.05
2022-11-05T19:41:28.758Z,2.15
2022-11-05T19:43:57.783Z,2.25
2022-11-05T19:46:25.069Z,1.90
2022-11-05T19:48:52.220Z,3.03
2022-11-05T19:51:23.848Z,3.03
2022-11-05T19:53:52.628Z,2.60
2022-11-05T19:56:24.629Z,2.63
2022-11-05T19:58:53.003Z,2.75
2022-11-05T20:01:21.324Z,2.95
2022-11-05T20:03:48.164Z,3.10
2022-11-05T20:06:20.173Z,2.85
2022-11-05T20:09:15.359Z,3.60
2022-11-05T20:11:36.840Z,2.42
2022-11-05T20:14:04.865Z,2.78
2022-11-05T20:16:38.118Z,2.67
2022-11-05T20:19:06.551Z,2.47
2022-11-05T20:21:33.724Z,3.75
2022-11-05T20:24:00.416Z,3.42
2022-11-05T20:26:27.415Z,3.58
2022-11-05T20:28:54.245Z,3.30
2022-11-05T20:31:21.085Z,2.83
2022-11-05T20:33:47.819Z,3.55
2022-11-05T20:36:16.628Z,4.18
2022-11-05T20:38:44.680Z,3.97
2022-11-05T20:41:13.052Z,3.85
2022-11-05T20:43:43.049Z,3.65
2022-11-05T20:46:13.327Z,4.78
2022-11-05T20:48:40.474Z,5.88
2022-11-05T20:51:09.335Z,5.25
2022-11-05T20:53:36.703Z,4.35
2022-11-05T20:56:07.887Z,4.55
2022-11-05T20:58:38.535Z,4.03
2022-11-05T21:01:05.733Z,4.68
2022-11-05T21:03:32.569Z,4.45
2022-11-05T21:06:04.021Z,4.45
2022-11-05T21:08:30.636Z,4.93
2022-11-05T21:10:57.240Z,5.20
2022-11-05T21:13:24.992Z,4.05
2022-11-05T21:15:53.636Z,5.40
2022-11-05T21:20:48.612Z,3.75
2022-11-05T21:23:15.952Z,5.47
2022-11-05T21:25:43.466Z,3.83
2022-11-05T21:28:11.821Z,3.95
2022-11-05T21:33:08.817Z,3.28
2022-11-05T21:35:40.039Z,4.60
2022-11-05T21:38:06.791Z,5.47
2022-11-05T21:40:33.331Z,4.25
2022-11-05T21:42:59.886Z,3.97
2022-11-05T21:45:26.441Z,3.47
2022-11-05T21:47:53.024Z,3.78
2022-11-05T21:50:21.929Z,4.15
2022-11-05T21:53:07.351Z,3.33
2022-11-05T21:55:52.566Z,3.97
2022-11-05T21:58:38.056Z,2.88
2022-11-05T22:01:04.648Z,2.83
2022-11-05T22:03:31.126Z,3.28
2022-11-05T22:05:57.627Z,2.53
2022-11-05T22:08:24.147Z,2.20
2022-11-05T22:10:50.631Z,3.55
2022-11-05T22:13:17.135Z,2.80
2022-11-05T22:15:43.681Z,3.20
2022-11-05T22:18:10.603Z,3.22
2022-11-05T22:20:39.353Z,2.53
2022-11-05T22:25:37.932Z,2.22
2022-11-05T22:28:04.657Z,1.83
2022-11-05T22:30:35.361Z,2.78
2022-11-05T22:33:01.916Z,2.35
2022-11-05T22:35:29.037Z,2.70
2022-11-05T22:37:55.560Z,2.47
2022-11-05T22:40:23.992Z,2.45
2022-11-05T22:42:50.853Z,2.15
2022-11-05T22:45:17.382Z,2.70
2022-11-05T22:47:45.098Z,2.78
2022-11-05T22:50:11.724Z,2.65
2022-11-05T22:52:38.352Z,2.17
2022-11-05T22:55:06.147Z,2.40
2022-11-05T22:57:32.683Z,2.65
2022-11-05T22:59:59.248Z,2.38
2022-11-05T23:02:25.845Z,2.90
2022-11-05T23:04:52.538Z,2.08
2022-11-05T23:07:37.820Z,2.40
2022-11-05T23:10:23.125Z,3.05
2022-11-05T23:12:49.615Z,3.67
2022-11-05T23:15:34.680Z,3.22
2022-11-05T23:18:19.725Z,2.97
2022-11-05T23:21:04.809Z,3.10
2022-11-05T23:23:49.723Z,3.50
2022-11-05T23:26:34.822Z,2.97
2022-11-05T23:29:01.346Z,2.40
2022-11-05T23:31:46.321Z,2.78
2022-11-05T23:34:12.796Z,2.50
2022-11-05T23:36:57.453Z,2.35
2022-11-05T23:39:23.978Z,2.28
2022-11-05T23:42:09.042Z,4.28
2022-11-05T23:44:54.096Z,3.05
2022-11-05T23:47:39.085Z,2.75
2022-11-05T23:50:05.913Z,2.90
2022-11-05T23:52:32.533Z,2.88
2022-11-05T23:54:59.171Z,2.65
2022-11-05T23:57:25.685Z,2.85
2022-11-05T23:59:52.325Z,2.33
